sensor_id;sensor_type;location;lat;lon;timestamp;temperature;humidity
27619;DHT22;15039;50.830;4.730;2023-07-31T00:01:35;17.70;99.90
27619;DHT22;15039;50.830;4.730;2023-07-31T00:04:01;17.80;99.90
27619;DHT22;15039;50.830;4.730;2023-07-31T00:06:26;17.90;99.90
27619;DHT22;15039;50.830;4.730;2023-07-31T00:08:52;17.90;99.90
27619;DHT22;15039;50.830;4.730;2023-07-31T00:11:17;17.90;99.90
27619;DHT22;15039;50.830;4.730;2023-07-31T00:13:43;17.90;99.90
27619;DHT22;15039;50.830;4.730;2023-07-31T00:16:09;18.00;99.90
27619;DHT22;15039;50.830;4.730;2023-07-31T00:18:34;18.00;99.90
27619;DHT22;15039;50.830;4.730;2023-07-31T00:21:00;18.00;99.90
27619;DHT22;15039;50.830;4.730;2023-07-31T00:23:27;18.00;99.90
27619;DHT22;15039;50.830;4.730;2023-07-31T00:25:53;18.10;99.90
27619;DHT22;15039;50.830;4.730;2023-07-31T00:28:20;18.10;99.90
27619;DHT22;15039;50.830;4.730;2023-07-31T00:30:46;18.00;99.90
27619;DHT22;15039;50.830;4.730;2023-07-31T00:33:11;18.10;99.90
27619;DHT22;15039;50.830;4.730;2023-07-31T00:35:37;18.10;99.90
27619;DHT22;15039;50.830;4.730;2023-07-31T00:38:02;18.10;99.90
27619;DHT22;15039;50.830;4.730;2023-07-31T00:40:28;18.00;99.90
27619;DHT22;15039;50.830;4.730;2023-07-31T00:42:53;18.00;99.90
27619;DHT22;15039;50.830;4.730;2023-07-31T00:45:19;18.10;99.90
27619;DHT22;15039;50.830;4.730;2023-07-31T00:47:45;18.20;99.90
27619;DHT22;15039;50.830;4.730;2023-07-31T00:50:11;18.20;99.90
27619;DHT22;15039;50.830;4.730;2023-07-31T00:52:36;18.30;99.90
27619;DHT22;15039;50.830;4.730;2023-07-31T00:55:02;18.30;99.90
27619;DHT22;15039;50.830;4.730;2023-07-31T00:57:28;18.20;99.90
27619;DHT22;15039;50.830;4.730;2023-07-31T00:59:54;18.20;99.90
27619;DHT22;15039;50.830;4.730;2023-07-31T01:02:19;18.20;99.90
27619;DHT22;15039;50.830;4.730;2023-07-31T01:04:45;18.20;99.90
27619;DHT22;15039;50.830;4.730;2023-07-31T01:07:13;18.20;99.90
27619;DHT22;15039;50.830;4.730;2023-07-31T01:09:52;18.20;99.90
27619;DHT22;15039;50.830;4.730;2023-07-31T01:12:21;18.30;99.90
27619;DHT22;15039;50.830;4.730;2023-07-31T01:14:51;18.20;99.90
27619;DHT22;15039;50.830;4.730;2023-07-31T01:17:16;18.10;99.90
27619;DHT22;15039;50.830;4.730;2023-07-31T01:19:42;18.10;99.90
27619;DHT22;15039;50.830;4.730;2023-07-31T01:22:12;18.00;99.90
27619;DHT22;15039;50.830;4.730;2023-07-31T01:27:15;18.20;99.90
27619;DHT22;15039;50.830;4.730;2023-07-31T01:32:08;18.10;99.90
27619;DHT22;15039;50.830;4.730;2023-07-31T01:34:34;18.10;99.90
27619;DHT22;15039;50.830;4.730;2023-07-31T01:37:00;18.00;99.90
27619;DHT22;15039;50.830;4.730;2023-07-31T01:39:26;18.00;99.90
27619;DHT22;15039;50.830;4.730;2023-07-31T01:41:51;18.00;99.90
27619;DHT22;15039;50.830;4.730;2023-07-31T01:44:17;18.10;99.90
27619;DHT22;15039;50.830;4.730;2023-07-31T01:46:42;18.00;99.90
27619;DHT22;15039;50.830;4.730;2023-07-31T01:49:08;18.10;99.90
27619;DHT22;15039;50.830;4.730;2023-07-31T01:51:33;18.20;99.90
27619;DHT22;15039;50.830;4.730;2023-07-31T01:54:00;18.10;99.90
27619;DHT22;15039;50.830;4.730;2023-07-31T01:56:25;18.00;99.90
27619;DHT22;15039;50.830;4.730;2023-07-31T01:58:51;18.00;99.90
27619;DHT22;15039;50.830;4.730;2023-07-31T02:01:16;18.10;99.90
27619;DHT22;15039;50.830;4.730;2023-07-31T02:03:42;18.20;99.90
27619;DHT22;15039;50.830;4.730;2023-07-31T02:06:07;18.10;99.90
27619;DHT22;15039;50.830;4.730;2023-07-31T02:08:33;18.10;99.90
27619;DHT22;15039;50.830;4.730;2023-07-31T02:10:58;18.20;99.90
27619;DHT22;15039;50.830;4.730;2023-07-31T02:13:24;18.10;99.90
27619;DHT22;15039;50.830;4.730;2023-07-31T02:15:49;18.10;99.90
27619;DHT22;15039;50.830;4.730;2023-07-31T02:18:16;18.10;99.90
27619;DHT22;15039;50.830;4.730;2023-07-31T02:20:41;18.20;99.90
27619;DHT22;15039;50.830;4.730;2023-07-31T02:23:07;18.10;99.90
27619;DHT22;15039;50.830;4.730;2023-07-31T02:25:32;18.10;99.90
27619;DHT22;15039;50.830;4.730;2023-07-31T02:27:58;18.10;99.90
27619;DHT22;15039;50.830;4.730;2023-07-31T02:30:23;18.10;99.90
27619;DHT22;15039;50.830;4.730;2023-07-31T02:32:49;18.20;99.90
27619;DHT22;15039;50.830;4.730;2023-07-31T02:35:14;18.30;99.90
27619;DHT22;15039;50.830;4.730;2023-07-31T02:37:41;18.30;99.90
27619;DHT22;15039;50.830;4.730;2023-07-31T02:40:07;18.30;99.90
27619;DHT22;15039;50.830;4.730;2023-07-31T02:42:32;18.20;99.90
27619;DHT22;15039;50.830;4.730;2023-07-31T02:44:58;18.20;99.90
27619;DHT22;15039;50.830;4.730;2023-07-31T02:47:23;18.20;99.90
27619;DHT22;15039;50.830;4.730;2023-07-31T02:49:49;18.20;99.90
27619;DHT22;15039;50.830;4.730;2023-07-31T02:52:14;18.20;99.90
27619;DHT22;15039;50.830;4.730;2023-07-31T02:54:40;18.20;99.90
27619;DHT22;15039;50.830;4.730;2023-07-31T02:57:05;18.10;99.90
27619;DHT22;15039;50.830;4.730;2023-07-31T02:59:31;18.00;99.90
27619;DHT22;15039;50.830;4.730;2023-07-31T03:01:56;18.00;99.90
27619;DHT22;15039;50.830;4.730;2023-07-31T03:04:22;18.10;99.90
27619;DHT22;15039;50.830;4.730;2023-07-31T03:06:56;18.20;99.90
27619;DHT22;15039;50.830;4.730;2023-07-31T03:09:22;18.20;99.90
27619;DHT22;15039;50.830;4.730;2023-07-31T03:11:47;18.20;99.90
27619;DHT22;15039;50.830;4.730;2023-07-31T03:14:13;18.10;99.90
27619;DHT22;15039;50.830;4.730;2023-07-31T03:16:38;18.10;99.90
27619;DHT22;15039;50.830;4.730;2023-07-31T03:19:04;18.10;99.90
27619;DHT22;15039;50.830;4.730;2023-07-31T03:21:29;18.10;99.90
27619;DHT22;15039;50.830;4.730;2023-07-31T03:23:55;18.10;99.90
27619;DHT22;15039;50.830;4.730;2023-07-31T03:26:20;18.10;99.90
27619;DHT22;15039;50.830;4.730;2023-07-31T03:28:46;18.20;99.90
27619;DHT22;15039;50.830;4.730;2023-07-31T03:31:12;18.20;99.90
27619;DHT22;15039;50.830;4.730;2023-07-31T03:33:37;18.10;99.90
27619;DHT22;15039;50.830;4.730;2023-07-31T03:36:03;18.20;99.90
27619;DHT22;15039;50.830;4.730;2023-07-31T03:38:29;18.30;99.90
27619;DHT22;15039;50.830;4.730;2023-07-31T03:40:54;18.30;99.90
27619;DHT22;15039;50.830;4.730;2023-07-31T03:43:20;18.30;99.90
27619;DHT22;15039;50.830;4.730;2023-07-31T03:45:46;18.30;99.90
27619;DHT22;15039;50.830;4.730;2023-07-31T03:48:13;18.30;99.90
27619;DHT22;15039;50.830;4.730;2023-07-31T03:50:39;18.20;99.90
27619;DHT22;15039;50.830;4.730;2023-07-31T03:53:04;18.30;99.90
27619;DHT22;15039;50.830;4.730;2023-07-31T03:55:30;18.30;99.90
27619;DHT22;15039;50.830;4.730;2023-07-31T03:57:55;18.30;99.90
27619;DHT22;15039;50.830;4.730;2023-07-31T04:00:21;18.10;99.90
27619;DHT22;15039;50.830;4.730;2023-07-31T04:02:47;18.20;99.90
27619;DHT22;15039;50.830;4.730;2023-07-31T04:05:13;18.20;99.90
27619;DHT22;15039;50.830;4.730;2023-07-31T04:07:38;18.10;99.90
27619;DHT22;15039;50.830;4.730;2023-07-31T04:10:04;18.20;99.90
27619;DHT22;15039;50.830;4.730;2023-07-31T04:12:29;18.10;99.90
27619;DHT22;15039;50.830;4.730;2023-07-31T04:14:55;18.10;99.90
27619;DHT22;15039;50.830;4.730;2023-07-31T04:17:21;18.10;99.90
27619;DHT22;15039;50.830;4.730;2023-07-31T04:19:46;18.00;99.90
27619;DHT22;15039;50.830;4.730;2023-07-31T04:22:12;17.90;99.90
27619;DHT22;15039;50.830;4.730;2023-07-31T04:24:37;17.90;99.90
27619;DHT22;15039;50.830;4.730;2023-07-31T04:27:03;17.90;99.90
27619;DHT22;15039;50.830;4.730;2023-07-31T04:29:28;17.80;99.90
27619;DHT22;15039;50.830;4.730;2023-07-31T04:31:54;17.80;99.90
27619;DHT22;15039;50.830;4.730;2023-07-31T04:34:19;17.80;99.90
27619;DHT22;15039;50.830;4.730;2023-07-31T04:36:45;17.80;99.90
27619;DHT22;15039;50.830;4.730;2023-07-31T04:39:10;17.90;99.90
27619;DHT22;15039;50.830;4.730;2023-07-31T04:41:36;17.80;99.90
27619;DHT22;15039;50.830;4.730;2023-07-31T04:44:02;17.70;99.90
27619;DHT22;15039;50.830;4.730;2023-07-31T04:46:29;17.70;99.90
27619;DHT22;15039;50.830;4.730;2023-07-31T04:48:54;17.80;99.90
27619;DHT22;15039;50.830;4.730;2023-07-31T04:51:20;17.80;99.90
27619;DHT22;15039;50.830;4.730;2023-07-31T04:53:46;17.80;99.90
27619;DHT22;15039;50.830;4.730;2023-07-31T04:56:12;17.90;99.90
27619;DHT22;15039;50.830;4.730;2023-07-31T04:58:37;17.90;99.90
27619;DHT22;15039;50.830;4.730;2023-07-31T05:01:03;17.90;99.90
27619;DHT22;15039;50.830;4.730;2023-07-31T05:03:28;17.90;99.90
27619;DHT22;15039;50.830;4.730;2023-07-31T05:05:54;17.80;99.90
27619;DHT22;15039;50.830;4.730;2023-07-31T05:08:19;17.80;99.90
27619;DHT22;15039;50.830;4.730;2023-07-31T05:10:45;17.80;99.90
27619;DHT22;15039;50.830;4.730;2023-07-31T05:13:10;17.80;99.90
27619;DHT22;15039;50.830;4.730;2023-07-31T05:15:36;17.80;99.90
27619;DHT22;15039;50.830;4.730;2023-07-31T05:18:01;17.90;99.90
27619;DHT22;15039;50.830;4.730;2023-07-31T05:20:27;17.80;99.90
27619;DHT22;15039;50.830;4.730;2023-07-31T05:22:53;17.80;99.90
27619;DHT22;15039;50.830;4.730;2023-07-31T05:25:19;17.70;99.90
27619;DHT22;15039;50.830;4.730;2023-07-31T05:27:44;17.70;99.90
27619;DHT22;15039;50.830;4.730;2023-07-31T05:30:10;17.70;99.90
27619;DHT22;15039;50.830;4.730;2023-07-31T05:32:36;17.70;99.90
27619;DHT22;15039;50.830;4.730;2023-07-31T05:35:01;17.50;99.90
27619;DHT22;15039;50.830;4.730;2023-07-31T05:37:27;17.60;99.90
27619;DHT22;15039;50.830;4.730;2023-07-31T05:39:52;17.60;99.90
27619;DHT22;15039;50.830;4.730;2023-07-31T05:42:18;17.50;99.90
27619;DHT22;15039;50.830;4.730;2023-07-31T05:44:43;17.40;99.90
27619;DHT22;15039;50.830;4.730;2023-07-31T05:47:09;17.40;99.90
27619;DHT22;15039;50.830;4.730;2023-07-31T05:49:35;17.40;99.90
27619;DHT22;15039;50.830;4.730;2023-07-31T05:52:00;17.30;99.90
27619;DHT22;15039;50.830;4.730;2023-07-31T05:54:26;17.30;99.90
27619;DHT22;15039;50.830;4.730;2023-07-31T05:56:51;17.20;99.90
27619;DHT22;15039;50.830;4.730;2023-07-31T05:59:17;17.30;99.90
27619;DHT22;15039;50.830;4.730;2023-07-31T06:01:42;17.30;99.90
27619;DHT22;15039;50.830;4.730;2023-07-31T06:04:08;17.20;99.90
27619;DHT22;15039;50.830;4.730;2023-07-31T06:06:33;17.20;99.90
27619;DHT22;15039;50.830;4.730;2023-07-31T06:08:59;17.10;99.90
27619;DHT22;15039;50.830;4.730;2023-07-31T06:11:25;17.20;99.90
27619;DHT22;15039;50.830;4.730;2023-07-31T06:13:50;17.20;99.90
27619;DHT22;15039;50.830;4.730;2023-07-31T06:16:16;17.30;99.90
27619;DHT22;15039;50.830;4.730;2023-07-31T06:18:42;17.30;99.90
27619;DHT22;15039;50.830;4.730;2023-07-31T06:21:08;17.30;99.90
27619;DHT22;15039;50.830;4.730;2023-07-31T06:23:33;17.30;99.90
27619;DHT22;15039;50.830;4.730;2023-07-31T06:25:59;17.20;99.90
27619;DHT22;15039;50.830;4.730;2023-07-31T06:28:28;17.20;99.90
27619;DHT22;15039;50.830;4.730;2023-07-31T06:30:54;17.20;99.90
27619;DHT22;15039;50.830;4.730;2023-07-31T06:33:20;17.20;99.90
27619;DHT22;15039;50.830;4.730;2023-07-31T06:35:45;17.30;99.90
27619;DHT22;15039;50.830;4.730;2023-07-31T06:38:11;17.30;99.90
27619;DHT22;15039;50.830;4.730;2023-07-31T06:40:36;17.30;99.90
27619;DHT22;15039;50.830;4.730;2023-07-31T06:43:02;17.40;99.90
27619;DHT22;15039;50.830;4.730;2023-07-31T06:45:36;17.50;99.90
27619;DHT22;15039;50.830;4.730;2023-07-31T06:48:02;17.50;99.90
27619;DHT22;15039;50.830;4.730;2023-07-31T06:50:28;17.50;99.90
27619;DHT22;15039;50.830;4.730;2023-07-31T06:52:53;17.50;99.90
27619;DHT22;15039;50.830;4.730;2023-07-31T06:55:19;17.50;99.90
27619;DHT22;15039;50.830;4.730;2023-07-31T06:57:45;17.60;99.90
27619;DHT22;15039;50.830;4.730;2023-07-31T07:00:11;17.60;99.90
27619;DHT22;15039;50.830;4.730;2023-07-31T07:02:40;17.60;99.90
27619;DHT22;15039;50.830;4.730;2023-07-31T07:05:06;17.70;99.90
27619;DHT22;15039;50.830;4.730;2023-07-31T07:07:32;17.80;99.90
27619;DHT22;15039;50.830;4.730;2023-07-31T07:09:57;17.80;99.90
27619;DHT22;15039;50.830;4.730;2023-07-31T07:12:25;17.80;99.90
27619;DHT22;15039;50.830;4.730;2023-07-31T07:14:53;17.90;99.90
27619;DHT22;15039;50.830;4.730;2023-07-31T07:17:19;18.00;99.90
27619;DHT22;15039;50.830;4.730;2023-07-31T07:19:44;18.00;99.90
27619;DHT22;15039;50.830;4.730;2023-07-31T07:22:11;18.10;99.90
27619;DHT22;15039;50.830;4.730;2023-07-31T07:24:39;18.10;99.90
27619;DHT22;15039;50.830;4.730;2023-07-31T07:27:06;18.10;99.90
27619;DHT22;15039;50.830;4.730;2023-07-31T07:29:33;18.20;99.90
27619;DHT22;15039;50.830;4.730;2023-07-31T07:31:58;18.30;99.90
27619;DHT22;15039;50.830;4.730;2023-07-31T07:34:26;18.40;99.90
27619;DHT22;15039;50.830;4.730;2023-07-31T07:36:51;18.30;99.90
27619;DHT22;15039;50.830;4.730;2023-07-31T07:39:17;18.40;99.90
27619;DHT22;15039;50.830;4.730;2023-07-31T07:41:43;18.30;99.90
27619;DHT22;15039;50.830;4.730;2023-07-31T07:44:08;18.40;99.90
27619;DHT22;15039;50.830;4.730;2023-07-31T07:46:34;18.60;99.90
27619;DHT22;15039;50.830;4.730;2023-07-31T07:49:02;18.50;99.90
27619;DHT22;15039;50.830;4.730;2023-07-31T07:51:27;18.50;99.90
27619;DHT22;15039;50.830;4.730;2023-07-31T07:53:55;18.60;99.90
27619;DHT22;15039;50.830;4.730;2023-07-31T07:56:21;18.60;99.90
27619;DHT22;15039;50.830;4.730;2023-07-31T07:58:50;18.50;99.90
27619;DHT22;15039;50.830;4.730;2023-07-31T08:01:16;18.60;99.90
27619;DHT22;15039;50.830;4.730;2023-07-31T08:03:43;18.60;99.90
27619;DHT22;15039;50.830;4.730;2023-07-31T08:06:08;18.70;99.90
27619;DHT22;15039;50.830;4.730;2023-07-31T08:08:37;18.70;99.90
27619;DHT22;15039;50.830;4.730;2023-07-31T08:11:03;18.80;99.90
27619;DHT22;15039;50.830;4.730;2023-07-31T08:13:29;18.80;99.90
27619;DHT22;15039;50.830;4.730;2023-07-31T08:15:54;18.80;99.90
27619;DHT22;15039;50.830;4.730;2023-07-31T08:18:20;18.70;99.90
27619;DHT22;15039;50.830;4.730;2023-07-31T08:20:46;18.60;99.90
27619;DHT22;15039;50.830;4.730;2023-07-31T08:23:13;18.60;99.90
27619;DHT22;15039;50.830;4.730;2023-07-31T08:25:39;18.60;99.90
27619;DHT22;15039;50.830;4.730;2023-07-31T08:28:04;18.70;99.90
27619;DHT22;15039;50.830;4.730;2023-07-31T08:30:30;18.70;99.90
27619;DHT22;15039;50.830;4.730;2023-07-31T08:32:56;18.80;99.90
27619;DHT22;15039;50.830;4.730;2023-07-31T08:35:23;18.80;99.90
27619;DHT22;15039;50.830;4.730;2023-07-31T08:37:49;18.80;99.90
27619;DHT22;15039;50.830;4.730;2023-07-31T08:40:15;18.70;99.90
27619;DHT22;15039;50.830;4.730;2023-07-31T08:42:45;18.80;99.90
27619;DHT22;15039;50.830;4.730;2023-07-31T08:47:38;18.90;99.90
27619;DHT22;15039;50.830;4.730;2023-07-31T08:50:04;19.10;99.90
27619;DHT22;15039;50.830;4.730;2023-07-31T08:52:32;18.90;99.90
27619;DHT22;15039;50.830;4.730;2023-07-31T08:54:57;18.80;99.90
27619;DHT22;15039;50.830;4.730;2023-07-31T08:57:23;18.70;99.90
27619;DHT22;15039;50.830;4.730;2023-07-31T08:59:49;18.80;99.90
27619;DHT22;15039;50.830;4.730;2023-07-31T09:02:15;18.80;99.90
27619;DHT22;15039;50.830;4.730;2023-07-31T09:04:41;18.70;99.90
27619;DHT22;15039;50.830;4.730;2023-07-31T09:07:07;18.60;99.90
27619;DHT22;15039;50.830;4.730;2023-07-31T09:09:34;18.70;99.90
27619;DHT22;15039;50.830;4.730;2023-07-31T09:12:00;18.70;99.90
27619;DHT22;15039;50.830;4.730;2023-07-31T09:14:26;18.70;99.90
27619;DHT22;15039;50.830;4.730;2023-07-31T09:16:55;18.90;99.90
27619;DHT22;15039;50.830;4.730;2023-07-31T09:19:40;18.80;99.90
27619;DHT22;15039;50.830;4.730;2023-07-31T09:22:07;18.80;99.90
27619;DHT22;15039;50.830;4.730;2023-07-31T09:24:33;18.60;99.90
27619;DHT22;15039;50.830;4.730;2023-07-31T09:26:59;18.60;99.90
27619;DHT22;15039;50.830;4.730;2023-07-31T09:29:25;18.70;99.90
27619;DHT22;15039;50.830;4.730;2023-07-31T09:31:52;18.70;99.90
27619;DHT22;15039;50.830;4.730;2023-07-31T09:34:18;18.70;99.90
27619;DHT22;15039;50.830;4.730;2023-07-31T09:36:48;18.80;99.90
27619;DHT22;15039;50.830;4.730;2023-07-31T09:39:14;18.90;99.90
27619;DHT22;15039;50.830;4.730;2023-07-31T09:41:46;19.00;99.90
27619;DHT22;15039;50.830;4.730;2023-07-31T09:44:12;19.20;99.90
27619;DHT22;15039;50.830;4.730;2023-07-31T09:46:39;19.30;99.90
27619;DHT22;15039;50.830;4.730;2023-07-31T09:49:08;19.50;99.90
27619;DHT22;15039;50.830;4.730;2023-07-31T09:51:34;19.70;99.90
27619;DHT22;15039;50.830;4.730;2023-07-31T09:54:13;19.80;99.90
27619;DHT22;15039;50.830;4.730;2023-07-31T09:56:49;19.50;99.90
27619;DHT22;15039;50.830;4.730;2023-07-31T09:59:15;19.50;99.90
27619;DHT22;15039;50.830;4.730;2023-07-31T10:01:41;19.30;99.90
27619;DHT22;15039;50.830;4.730;2023-07-31T10:04:08;19.40;99.90
27619;DHT22;15039;50.830;4.730;2023-07-31T10:06:34;19.50;99.90
27619;DHT22;15039;50.830;4.730;2023-07-31T10:09:00;19.40;99.90
27619;DHT22;15039;50.830;4.730;2023-07-31T10:11:26;19.50;99.90
27619;DHT22;15039;50.830;4.730;2023-07-31T10:13:52;19.60;99.90
27619;DHT22;15039;50.830;4.730;2023-07-31T10:16:19;19.70;99.90
27619;DHT22;15039;50.830;4.730;2023-07-31T10:18:45;19.70;99.90
27619;DHT22;15039;50.830;4.730;2023-07-31T10:21:11;19.70;99.90
27619;DHT22;15039;50.830;4.730;2023-07-31T10:23:37;19.90;99.90
27619;DHT22;15039;50.830;4.730;2023-07-31T10:26:04;20.00;99.90
27619;DHT22;15039;50.830;4.730;2023-07-31T10:28:31;19.90;99.90
27619;DHT22;15039;50.830;4.730;2023-07-31T10:30:58;19.70;99.90
27619;DHT22;15039;50.830;4.730;2023-07-31T10:33:23;19.70;99.90
27619;DHT22;15039;50.830;4.730;2023-07-31T10:35:49;20.00;99.90
27619;DHT22;15039;50.830;4.730;2023-07-31T10:38:15;20.20;99.90
27619;DHT22;15039;50.830;4.730;2023-07-31T10:40:41;20.40;99.90
27619;DHT22;15039;50.830;4.730;2023-07-31T10:43:07;20.60;99.90
27619;DHT22;15039;50.830;4.730;2023-07-31T10:45:37;20.80;99.90
27619;DHT22;15039;50.830;4.730;2023-07-31T10:48:06;20.90;99.90
27619;DHT22;15039;50.830;4.730;2023-07-31T10:50:32;20.80;99.90
27619;DHT22;15039;50.830;4.730;2023-07-31T10:53:02;20.70;99.90
27619;DHT22;15039;50.830;4.730;2023-07-31T10:55:32;20.80;99.90
27619;DHT22;15039;50.830;4.730;2023-07-31T10:58:09;21.00;99.90
27619;DHT22;15039;50.830;4.730;2023-07-31T11:00:38;21.10;99.90
27619;DHT22;15039;50.830;4.730;2023-07-31T11:03:05;20.90;99.90
27619;DHT22;15039;50.830;4.730;2023-07-31T11:05:52;20.70;99.90
27619;DHT22;15039;50.830;4.730;2023-07-31T11:10:51;20.80;99.90
27619;DHT22;15039;50.830;4.730;2023-07-31T11:13:51;21.00;99.90
27619;DHT22;15039;50.830;4.730;2023-07-31T11:16:21;21.10;99.90
27619;DHT22;15039;50.830;4.730;2023-07-31T11:18:56;21.10;99.90
27619;DHT22;15039;50.830;4.730;2023-07-31T11:21:48;21.20;99.90
27619;DHT22;15039;50.830;4.730;2023-07-31T11:24:14;20.90;99.90
27619;DHT22;15039;50.830;4.730;2023-07-31T11:26:47;20.80;99.90
27619;DHT22;15039;50.830;4.730;2023-07-31T11:29:13;20.90;99.90
27619;DHT22;15039;50.830;4.730;2023-07-31T11:31:42;21.00;99.90
27619;DHT22;15039;50.830;4.730;2023-07-31T11:34:09;21.00;99.90
27619;DHT22;15039;50.830;4.730;2023-07-31T11:36:34;21.00;99.90
27619;DHT22;15039;50.830;4.730;2023-07-31T11:39:07;20.90;99.90
27619;DHT22;15039;50.830;4.730;2023-07-31T11:41:36;21.00;99.90
27619;DHT22;15039;50.830;4.730;2023-07-31T11:44:02;21.10;99.90
27619;DHT22;15039;50.830;4.730;2023-07-31T11:46:29;21.10;99.90
27619;DHT22;15039;50.830;4.730;2023-07-31T11:48:59;21.10;99.90
27619;DHT22;15039;50.830;4.730;2023-07-31T11:51:25;21.10;99.90
27619;DHT22;15039;50.830;4.730;2023-07-31T11:53:56;21.10;99.90
27619;DHT22;15039;50.830;4.730;2023-07-31T11:56:23;21.20;99.90
27619;DHT22;15039;50.830;4.730;2023-07-31T11:58:51;21.30;99.90
27619;DHT22;15039;50.830;4.730;2023-07-31T12:01:19;21.40;99.90
27619;DHT22;15039;50.830;4.730;2023-07-31T12:03:46;21.50;99.90
27619;DHT22;15039;50.830;4.730;2023-07-31T12:06:12;21.40;99.90
27619;DHT22;15039;50.830;4.730;2023-07-31T12:08:37;21.30;99.90
27619;DHT22;15039;50.830;4.730;2023-07-31T12:11:04;21.40;99.90
27619;DHT22;15039;50.830;4.730;2023-07-31T12:13:30;21.40;99.90
27619;DHT22;15039;50.830;4.730;2023-07-31T12:15:57;21.50;99.90
27619;DHT22;15039;50.830;4.730;2023-07-31T12:18:25;21.70;99.90
27619;DHT22;15039;50.830;4.730;2023-07-31T12:20:57;21.90;99.90
27619;DHT22;15039;50.830;4.730;2023-07-31T12:23:25;22.30;99.90
27619;DHT22;15039;50.830;4.730;2023-07-31T12:26:00;22.60;99.90
27619;DHT22;15039;50.830;4.730;2023-07-31T12:28:27;22.90;99.90
27619;DHT22;15039;50.830;4.730;2023-07-31T12:30:56;23.00;99.90
27619;DHT22;15039;50.830;4.730;2023-07-31T12:33:22;22.70;99.90
27619;DHT22;15039;50.830;4.730;2023-07-31T12:35:47;22.50;99.90
27619;DHT22;15039;50.830;4.730;2023-07-31T12:38:13;22.60;99.90
27619;DHT22;15039;50.830;4.730;2023-07-31T12:40:39;22.50;99.90
27619;DHT22;15039;50.830;4.730;2023-07-31T12:43:05;22.40;99.90
27619;DHT22;15039;50.830;4.730;2023-07-31T12:45:31;22.40;99.90
27619;DHT22;15039;50.830;4.730;2023-07-31T12:47:58;22.40;99.90
27619;DHT22;15039;50.830;4.730;2023-07-31T12:50:23;22.20;99.90
27619;DHT22;15039;50.830;4.730;2023-07-31T12:52:49;22.20;99.90
27619;DHT22;15039;50.830;4.730;2023-07-31T12:55:15;21.90;99.90
27619;DHT22;15039;50.830;4.730;2023-07-31T12:57:41;21.60;99.90
27619;DHT22;15039;50.830;4.730;2023-07-31T13:00:07;21.50;99.90
27619;DHT22;15039;50.830;4.730;2023-07-31T13:02:33;21.40;99.90
27619;DHT22;15039;50.830;4.730;2023-07-31T13:04:58;21.30;99.90
27619;DHT22;15039;50.830;4.730;2023-07-31T13:07:24;21.20;99.90
27619;DHT22;15039;50.830;4.730;2023-07-31T13:09:50;21.10;99.90
27619;DHT22;15039;50.830;4.730;2023-07-31T13:12:16;21.20;99.90
27619;DHT22;15039;50.830;4.730;2023-07-31T13:14:41;21.20;99.90
27619;DHT22;15039;50.830;4.730;2023-07-31T13:17:07;21.20;99.90
27619;DHT22;15039;50.830;4.730;2023-07-31T13:19:32;21.20;99.90
27619;DHT22;15039;50.830;4.730;2023-07-31T13:21:58;21.20;99.90
27619;DHT22;15039;50.830;4.730;2023-07-31T13:24:24;21.10;99.90
27619;DHT22;15039;50.830;4.730;2023-07-31T13:26:49;21.10;99.90
27619;DHT22;15039;50.830;4.730;2023-07-31T13:29:15;21.20;99.90
27619;DHT22;15039;50.830;4.730;2023-07-31T13:31:40;21.10;99.90
27619;DHT22;15039;50.830;4.730;2023-07-31T13:34:06;21.00;99.90
27619;DHT22;15039;50.830;4.730;2023-07-31T13:36:33;20.90;99.90
27619;DHT22;15039;50.830;4.730;2023-07-31T13:38:59;20.70;99.90
27619;DHT22;15039;50.830;4.730;2023-07-31T13:41:25;20.60;99.90
27619;DHT22;15039;50.830;4.730;2023-07-31T13:43:50;20.70;99.90
27619;DHT22;15039;50.830;4.730;2023-07-31T13:46:16;20.70;99.90
27619;DHT22;15039;50.830;4.730;2023-07-31T13:48:42;20.60;99.90
27619;DHT22;15039;50.830;4.730;2023-07-31T13:51:07;20.20;99.90
27619;DHT22;15039;50.830;4.730;2023-07-31T13:53:33;20.10;99.90
27619;DHT22;15039;50.830;4.730;2023-07-31T13:55:58;20.00;99.90
27619;DHT22;15039;50.830;4.730;2023-07-31T13:58:24;19.90;99.90
27619;DHT22;15039;50.830;4.730;2023-07-31T14:00:49;19.70;99.90
27619;DHT22;15039;50.830;4.730;2023-07-31T14:03:15;19.70;99.90
27619;DHT22;15039;50.830;4.730;2023-07-31T14:05:40;19.70;99.90
27619;DHT22;15039;50.830;4.730;2023-07-31T14:08:06;19.50;99.90
27619;DHT22;15039;50.830;4.730;2023-07-31T14:10:31;19.50;99.90
27619;DHT22;15039;50.830;4.730;2023-07-31T14:12:57;19.50;99.90
27619;DHT22;15039;50.830;4.730;2023-07-31T14:15:22;19.40;99.90
27619;DHT22;15039;50.830;4.730;2023-07-31T14:17:48;19.30;99.90
27619;DHT22;15039;50.830;4.730;2023-07-31T14:20:14;19.40;99.90
27619;DHT22;15039;50.830;4.730;2023-07-31T14:22:39;19.30;99.90
27619;DHT22;15039;50.830;4.730;2023-07-31T14:25:05;19.30;99.90
27619;DHT22;15039;50.830;4.730;2023-07-31T14:27:31;19.30;99.90
27619;DHT22;15039;50.830;4.730;2023-07-31T14:29:56;19.20;99.90
27619;DHT22;15039;50.830;4.730;2023-07-31T14:32:22;19.20;99.90
27619;DHT22;15039;50.830;4.730;2023-07-31T14:34:50;19.10;99.90
27619;DHT22;15039;50.830;4.730;2023-07-31T14:37:16;19.10;99.90
27619;DHT22;15039;50.830;4.730;2023-07-31T14:39:41;19.10;99.90
27619;DHT22;15039;50.830;4.730;2023-07-31T14:42:07;19.10;99.90
27619;DHT22;15039;50.830;4.730;2023-07-31T14:44:32;19.10;99.90
27619;DHT22;15039;50.830;4.730;2023-07-31T14:46:58;19.10;99.90
27619;DHT22;15039;50.830;4.730;2023-07-31T14:49:23;19.20;99.90
27619;DHT22;15039;50.830;4.730;2023-07-31T14:51:49;19.30;99.90
27619;DHT22;15039;50.830;4.730;2023-07-31T14:54:14;19.40;99.90
27619;DHT22;15039;50.830;4.730;2023-07-31T14:56:40;19.40;99.90
27619;DHT22;15039;50.830;4.730;2023-07-31T14:59:05;19.50;99.90
27619;DHT22;15039;50.830;4.730;2023-07-31T15:01:33;19.50;99.90
27619;DHT22;15039;50.830;4.730;2023-07-31T15:03:58;19.60;99.90
27619;DHT22;15039;50.830;4.730;2023-07-31T15:06:24;19.60;99.90
27619;DHT22;15039;50.830;4.730;2023-07-31T15:08:50;19.60;99.90
27619;DHT22;15039;50.830;4.730;2023-07-31T15:11:15;19.70;99.90
27619;DHT22;15039;50.830;4.730;2023-07-31T15:13:41;19.70;99.90
27619;DHT22;15039;50.830;4.730;2023-07-31T15:16:06;19.80;99.90
27619;DHT22;15039;50.830;4.730;2023-07-31T15:18:32;19.70;99.90
27619;DHT22;15039;50.830;4.730;2023-07-31T15:20:57;19.40;99.90
27619;DHT22;15039;50.830;4.730;2023-07-31T15:23:23;19.40;99.90
27619;DHT22;15039;50.830;4.730;2023-07-31T15:28:30;19.30;99.90
27619;DHT22;15039;50.830;4.730;2023-07-31T15:30:57;19.20;99.90
27619;DHT22;15039;50.830;4.730;2023-07-31T15:33:22;19.20;99.90
27619;DHT22;15039;50.830;4.730;2023-07-31T15:35:48;19.20;99.90
27619;DHT22;15039;50.830;4.730;2023-07-31T15:38:14;19.10;99.90